Time;durP1;ratioP1;P1;durP2;ratioP2;P2;SDS_P1;SDS_P2;PMS_P1;PMS_P2;Temp;Humidity;BMP_temperature;BMP_pressure;BME280_temperature;BME280_humidity;BME280_pressure;Samples;Min_cycle;Max_cycle;Signal;HPM_P1;HPM_P2
2023/05/03 00:02:01;;;;;;;13.32;6.72;;;;;;;-144.87;100.00;61487.56;4955262;28;20115;-74
2023/05/03 00:04:27;;;;;;;13.20;6.85;;;;;;;-144.87;100.00;61487.56;4936584;28;20097;-74
2023/05/03 00:06:54;;;;;;;14.00;6.60;;;;;;;-144.87;100.00;61487.56;4971943;28;20031;-74
2023/05/03 00:09:20;;;;;;;18.17;7.43;;;;;;;-144.87;100.00;61487.56;4968578;28;20050;-74
2023/05/03 00:11:47;;;;;;;13.63;6.15;;;;;;;-144.87;100.00;61487.56;4970058;28;20035;-74
2023/05/03 00:14:13;;;;;;;17.95;7.55;;;;;;;-144.87;100.00;61487.56;4937716;28;20038;-74
2023/05/03 00:16:39;;;;;;;15.60;7.10;;;;;;;-144.87;100.00;61487.56;4932392;28;20484;-73
2023/05/03 00:19:06;;;;;;;12.43;7.05;;;;;;;-144.87;100.00;61487.56;4926479;28;20046;-74
2023/05/03 00:21:32;;;;;;;18.60;7.10;;;;;;;-144.87;100.00;61487.56;4932859;28;20081;-74
2023/05/03 00:23:58;;;;;;;13.13;6.95;;;;;;;-144.87;100.00;61487.56;4967791;28;20041;-75
2023/05/03 00:26:25;;;;;;;12.52;6.70;;;;;;;-144.87;100.00;61487.56;4967853;28;20125;-74
2023/05/03 00:28:52;;;;;;;14.57;7.13;;;;;;;-144.87;100.00;61487.56;4945271;28;20519;-74
2023/05/03 00:31:18;;;;;;;13.75;7.20;;;;;;;-144.87;100.00;61487.56;4951192;28;20149;-76
2023/05/03 00:33:44;;;;;;;14.57;6.47;;;;;;;-144.87;100.00;61487.56;4957538;28;20066;-74
2023/05/03 00:36:13;;;;;;;12.68;7.07;;;;;;;-144.87;100.00;61487.56;4939503;28;20148;-74
2023/05/03 00:38:40;;;;;;;21.27;7.53;;;;;;;-144.87;100.00;61487.56;4949491;28;20038;-74
2023/05/03 00:41:08;;;;;;;12.35;7.13;;;;;;;-144.87;100.00;61487.56;4963840;28;20107;-74
2023/05/03 00:43:34;;;;;;;15.95;7.40;;;;;;;-144.87;100.00;61487.56;4947211;28;20042;-73
2023/05/03 00:46:02;;;;;;;16.88;7.45;;;;;;;-144.87;100.00;61487.56;4965556;28;20469;-74
2023/05/03 00:48:29;;;;;;;16.75;7.47;;;;;;;-144.87;100.00;61487.56;4916937;28;20105;-76
2023/05/03 00:50:57;;;;;;;17.35;8.23;;;;;;;-144.87;100.00;61487.56;4953521;28;20103;-75
2023/05/03 00:53:24;;;;;;;15.20;7.57;;;;;;;-144.87;100.00;61487.56;4948625;28;20038;-74
2023/05/03 00:55:55;;;;;;;21.88;9.07;;;;;;;-144.87;100.00;61487.56;4963045;28;20057;-73
2023/05/03 00:58:21;;;;;;;17.00;7.60;;;;;;;-144.87;100.00;61487.56;4934167;28;20086;-75
2023/05/03 01:00:48;;;;;;;16.48;8.52;;;;;;;-144.87;100.00;61487.56;4945940;28;20512;-73
2023/05/03 01:03:16;;;;;;;14.23;9.10;;;;;;;-144.87;100.00;61487.56;4950103;28;20058;-75
2023/05/03 01:05:47;;;;;;;21.33;8.32;;;;;;;-144.87;100.00;61487.56;4947140;28;20038;-74
2023/05/03 01:08:36;;;;;;;20.67;9.38;;;;;;;-144.87;100.00;61487.56;4966112;28;20034;-75
2023/05/03 01:11:09;;;;;;;18.92;8.90;;;;;;;-144.87;100.00;61487.56;4953432;28;20115;-73
2023/05/03 01:13:35;;;;;;;27.02;10.45;;;;;;;-144.87;100.00;61487.56;4954452;28;20035;-73
2023/05/03 01:17:01;;;;;;;23.50;9.60;;;;;;;-144.87;100.00;61487.56;4968106;28;20384;-75
2023/05/03 01:19:43;;;;;;;17.48;9.52;;;;;;;-144.87;100.00;61487.56;4889817;29;20035;-74
2023/05/03 01:22:28;;;;;;;18.95;9.50;;;;;;;-144.87;100.00;61487.56;4890038;29;20043;-75
2023/05/03 01:25:08;;;;;;;20.13;9.82;;;;;;;-144.87;100.00;61487.56;4932374;28;20051;-74
2023/05/03 01:27:35;;;;;;;18.55;9.73;;;;;;;-144.87;100.00;61487.56;4947449;28;20043;-74
2023/05/03 01:30:09;;;;;;;21.80;9.07;;;;;;;-144.87;100.00;61487.56;4934015;28;20057;-74
2023/05/03 01:33:02;;;;;;;14.23;8.65;;;;;;;-144.87;100.00;61487.56;4948035;28;20030;-76
2023/05/03 01:36:04;;;;;;;15.80;8.38;;;;;;;-144.87;100.00;61487.56;4956383;28;20038;-74
2023/05/03 01:38:33;;;;;;;15.70;8.30;;;;;;;-144.87;100.00;61487.56;4948412;28;20125;-74
2023/05/03 01:41:01;;;;;;;16.38;7.80;;;;;;;-144.87;100.00;61487.56;4947885;28;20510;-75
2023/05/03 01:43:32;;;;;;;20.67;9.43;;;;;;;-144.87;100.00;61487.56;4953437;28;20484;-75
2023/05/03 01:45:58;;;;;;;19.85;8.90;;;;;;;-144.87;100.00;61487.56;4930516;28;20114;-74
2023/05/03 01:48:25;;;;;;;17.10;9.15;;;;;;;-144.87;100.00;61487.56;4961420;28;20153;-74
2023/05/03 01:50:51;;;;;;;23.58;9.85;;;;;;;-144.87;100.00;61487.56;4966134;28;20061;-74
2023/05/03 01:53:17;;;;;;;21.40;9.68;;;;;;;-144.87;100.00;61487.56;4932932;28;20496;-75
2023/05/03 01:55:44;;;;;;;22.33;9.88;;;;;;;-144.87;100.00;61487.56;4955829;28;20284;-75
2023/05/03 01:58:11;;;;;;;24.08;10.50;;;;;;;-144.87;100.00;61487.56;4967640;28;20043;-75
2023/05/03 02:00:38;;;;;;;21.52;10.18;;;;;;;-144.87;100.00;61487.56;4948756;28;20411;-75
2023/05/03 02:03:04;;;;;;;19.05;10.25;;;;;;;-144.87;100.00;61487.56;4963203;28;20030;-75
2023/05/03 02:05:30;;;;;;;15.95;9.85;;;;;;;-144.87;100.00;61487.56;4948799;28;20081;-74
2023/05/03 02:07:57;;;;;;;25.30;11.30;;;;;;;-144.87;100.00;61487.56;4949329;28;20515;-74
2023/05/03 02:10:24;;;;;;;21.63;9.95;;;;;;;-144.87;100.00;61487.56;4949420;28;20043;-73
2023/05/03 02:12:50;;;;;;;19.73;11.18;;;;;;;-144.87;100.00;61487.56;4964462;28;20567;-74
2023/05/03 02:15:18;;;;;;;20.02;10.13;;;;;;;-144.87;100.00;61487.56;4915372;28;20035;-74
2023/05/03 02:17:48;;;;;;;23.48;10.68;;;;;;;-144.87;100.00;61487.56;4913888;28;20807;-74
2023/05/03 02:20:15;;;;;;;19.42;10.00;;;;;;;-144.87;100.00;61487.56;4965698;28;20164;-74
2023/05/03 02:22:41;;;;;;;26.30;10.50;;;;;;;-144.87;100.00;61487.56;4969529;28;20039;-74
2023/05/03 02:25:08;;;;;;;23.40;10.32;;;;;;;-144.87;100.00;61487.56;4967597;28;20087;-74
2023/05/03 02:27:34;;;;;;;21.08;9.82;;;;;;;-144.87;100.00;61487.56;4950047;28;20464;-74
2023/05/03 02:30:01;;;;;;;19.90;10.05;;;;;;;-144.87;100.00;61487.56;4950783;28;20038;-74
2023/05/03 02:32:30;;;;;;;22.38;9.35;;;;;;;-144.87;100.00;61487.56;4951615;28;20116;-74
2023/05/03 02:34:58;;;;;;;20.85;10.25;;;;;;;-144.87;100.00;61487.56;4967902;28;21103;-75
2023/05/03 02:37:26;;;;;;;20.35;9.30;;;;;;;-144.87;100.00;61487.56;4921512;28;20039;-73
2023/05/03 02:39:52;;;;;;;26.50;9.43;;;;;;;-144.87;100.00;61487.56;4954519;28;20571;-75
2023/05/03 02:42:18;;;;;;;22.35;9.77;;;;;;;-144.87;100.00;61487.56;4937325;28;20110;-75
2023/05/03 02:44:45;;;;;;;15.68;9.07;;;;;;;-144.87;100.00;61487.56;4933990;28;20146;-75
2023/05/03 02:47:11;;;;;;;25.20;9.70;;;;;;;-144.87;100.00;61487.56;4934631;28;20396;-73
2023/05/03 02:49:40;;;;;;;24.02;10.23;;;;;;;-144.87;100.00;61487.56;4951208;28;20035;-74
2023/05/03 02:52:07;;;;;;;25.17;10.02;;;;;;;-144.87;100.00;61487.56;4968490;28;20046;-74
2023/05/03 02:54:33;;;;;;;20.27;8.88;;;;;;;-144.87;100.00;61487.56;4945485;28;20039;-74
2023/05/03 02:57:04;;;;;;;18.48;9.27;;;;;;;-144.87;100.00;61487.56;4954082;28;20570;-74
2023/05/03 02:59:31;;;;;;;22.70;9.93;;;;;;;-144.87;100.00;61487.56;4937674;28;20061;-74
2023/05/03 03:01:59;;;;;;;16.30;8.57;;;;;;;-144.87;100.00;61487.56;4953440;28;20034;-75
2023/05/03 03:04:25;;;;;;;21.20;9.30;;;;;;;-144.87;100.00;61487.56;4968602;28;20054;-75
2023/05/03 03:06:55;;;;;;;16.75;9.15;;;;;;;-144.87;100.00;61487.56;4947928;28;20053;-75
2023/05/03 03:09:22;;;;;;;18.50;10.00;;;;;;;-144.87;100.00;61487.56;4953003;28;20147;-74
2023/05/03 03:11:49;;;;;;;18.63;8.90;;;;;;;-144.87;100.00;61487.56;4957877;28;20127;-75
2023/05/03 03:14:16;;;;;;;21.48;8.60;;;;;;;-144.87;100.00;61487.56;4951618;28;20035;-73
2023/05/03 03:16:43;;;;;;;24.92;10.52;;;;;;;-144.87;100.00;61487.56;4924449;28;20456;-75
2023/05/03 03:19:11;;;;;;;25.30;11.48;;;;;;;-144.87;100.00;61487.56;4946155;28;20038;-75
2023/05/03 03:21:37;;;;;;;18.00;10.15;;;;;;;-144.87;100.00;61487.56;4939326;28;20125;-74
2023/05/03 03:24:04;;;;;;;24.27;10.52;;;;;;;-144.87;100.00;61487.56;4936151;28;20050;-74
2023/05/03 03:26:30;;;;;;;24.08;10.80;;;;;;;-144.87;100.00;61487.56;4950489;28;20045;-75
2023/05/03 03:28:57;;;;;;;27.83;11.65;;;;;;;-144.87;100.00;61487.56;4928816;28;20523;-75
2023/05/03 03:31:24;;;;;;;28.10;11.65;;;;;;;-144.87;100.00;61487.56;4940880;28;20054;-74
2023/05/03 03:33:53;;;;;;;18.25;10.45;;;;;;;-144.87;100.00;61487.56;4934087;28;20037;-75
2023/05/03 03:36:20;;;;;;;25.73;12.15;;;;;;;-144.87;100.00;61487.56;4955126;28;20053;-74
2023/05/03 03:38:48;;;;;;;31.58;11.85;;;;;;;-144.87;100.00;61487.56;4945597;28;20038;-74
2023/05/03 03:41:14;;;;;;;29.38;13.25;;;;;;;-144.87;100.00;61487.56;4925354;28;20303;-75
2023/05/03 03:43:41;;;;;;;33.85;13.13;;;;;;;-144.87;100.00;61487.56;4935332;28;20152;-74
2023/05/03 03:46:12;;;;;;;32.00;13.52;;;;;;;-144.87;100.00;61487.56;4936082;28;20055;-74
2023/05/03 03:48:39;;;;;;;27.80;13.60;;;;;;;-144.87;100.00;61487.56;4928905;28;20514;-74
2023/05/03 03:51:05;;;;;;;26.98;12.15;;;;;;;-144.87;100.00;61487.56;4933980;28;20058;-75
2023/05/03 03:53:38;;;;;;;26.60;13.07;;;;;;;-144.87;100.00;61487.56;4947210;28;20097;-74
2023/05/03 03:56:05;;;;;;;26.73;12.23;;;;;;;-144.87;100.00;61487.56;4971604;28;20034;-75
2023/05/03 03:58:31;;;;;;;33.38;12.80;;;;;;;-144.87;100.00;61487.56;4939173;28;20043;-74
2023/05/03 04:00:59;;;;;;;23.58;13.13;;;;;;;-144.87;100.00;61487.56;4948969;28;20047;-74
2023/05/03 04:03:27;;;;;;;24.13;12.65;;;;;;;-144.87;100.00;61487.56;4948223;28;20042;-74
2023/05/03 04:05:54;;;;;;;29.42;13.20;;;;;;;-144.87;100.00;61487.56;4951289;28;20046;-74
2023/05/03 04:08:21;;;;;;;23.25;13.45;;;;;;;-144.87;100.00;61487.56;4950996;28;20035;-74
2023/05/03 04:10:47;;;;;;;28.02;14.15;;;;;;;-144.87;100.00;61487.56;4951150;28;20070;-74
2023/05/03 04:13:14;;;;;;;26.13;12.85;;;;;;;-144.87;100.00;61487.56;4949189;28;20051;-74
2023/05/03 04:15:40;;;;;;;26.50;13.15;;;;;;;-144.87;100.00;61487.56;4939692;28;20126;-75
2023/05/03 04:18:07;;;;;;;31.63;13.15;;;;;;;-144.87;100.00;61487.56;4956533;28;20057;-75
2023/05/03 04:20:36;;;;;;;29.63;13.38;;;;;;;-144.87;100.00;61487.56;4949596;28;20497;-75
2023/05/03 04:23:04;;;;;;;28.83;12.35;;;;;;;-144.87;100.00;61487.56;4948327;28;20127;-75
2023/05/03 04:25:35;;;;;;;34.85;13.77;;;;;;;-144.87;100.00;61487.56;4933493;28;20058;-75
2023/05/03 04:28:08;;;;;;;21.63;12.52;;;;;;;-144.87;100.00;61487.56;4933465;28;20039;-74
2023/05/03 04:30:38;;;;;;;;;;;;;;;-144.87;100.00;61487.56;4934951;28;20061;-75
2023/05/03 04:33:05;;;;;;;32.65;13.52;;;;;;;-144.87;100.00;61487.56;4936201;28;19918;-75
2023/05/03 04:35:35;;;;;;;23.40;12.52;;;;;;;-144.87;100.00;61487.56;4940195;28;20038;-76
2023/05/03 04:38:07;;;;;;;27.58;12.80;;;;;;;-144.87;100.00;61487.56;4939902;28;20469;-76
2023/05/03 04:40:34;;;;;;;26.25;12.32;;;;;;;-144.87;100.00;61487.56;4951496;28;20063;-74
2023/05/03 04:43:10;;;;;;;22.02;11.35;;;;;;;-144.87;100.00;61487.56;4947603;28;20037;-75
2023/05/03 04:45:41;;;;;;;22.17;11.13;;;;;;;-144.87;100.00;61487.56;4914751;28;20138;-73
2023/05/03 04:48:10;;;;;;;22.55;10.73;;;;;;;-144.87;100.00;61487.56;4915353;28;20039;-74
2023/05/03 04:50:36;;;;;;;19.00;9.77;;;;;;;-144.87;100.00;61487.56;4932857;28;20190;-74
2023/05/03 04:53:05;;;;;;;18.05;9.32;;;;;;;-144.87;100.00;61487.56;4957829;28;20043;-73
2023/05/03 04:55:34;;;;;;;15.50;8.07;;;;;;;-144.87;100.00;61487.56;4945188;28;20038;-72
2023/05/03 04:58:02;;;;;;;17.33;7.38;;;;;;;-144.87;100.00;61487.56;4927665;28;20039;-72
2023/05/03 05:00:29;;;;;;;23.98;7.22;;;;;;;-144.87;100.00;61487.56;4946816;28;20218;-74
2023/05/03 05:03:02;;;;;;;12.80;5.95;;;;;;;-144.87;100.00;61487.56;4938953;28;20526;-73
2023/05/03 05:05:30;;;;;;;13.18;6.40;;;;;;;-144.87;100.00;61487.56;4944800;28;20053;-74
2023/05/03 05:07:58;;;;;;;10.52;5.85;;;;;;;-144.87;100.00;61487.56;4948228;28;20030;-73
2023/05/03 05:10:28;;;;;;;11.40;6.32;;;;;;;-144.87;100.00;61487.56;4933404;28;20046;-72
2023/05/03 05:12:56;;;;;;;9.38;5.40;;;;;;;-144.87;100.00;61487.56;4968997;28;20034;-73
2023/05/03 05:15:22;;;;;;;10.05;5.80;;;;;;;-144.87;100.00;61487.56;4931249;28;20043;-74
2023/05/03 05:17:49;;;;;;;13.98;6.88;;;;;;;-144.87;100.00;61487.56;4933294;28;20039;-73
2023/05/03 05:20:17;;;;;;;16.58;6.82;;;;;;;-144.87;100.00;61487.56;4945895;28;20042;-73
2023/05/03 05:22:47;;;;;;;19.02;6.38;;;;;;;-144.87;100.00;61487.56;4946036;28;20034;-73
2023/05/03 05:25:13;;;;;;;24.05;6.72;;;;;;;-144.87;100.00;61487.56;4952334;28;20119;-75
2023/05/03 05:27:40;;;;;;;13.65;5.90;;;;;;;-144.87;100.00;61487.56;4953204;28;20440;-73
2023/05/03 05:30:07;;;;;;;16.20;6.07;;;;;;;-144.87;100.00;61487.56;4913062;28;20057;-73
2023/05/03 05:32:35;;;;;;;11.90;5.32;;;;;;;-144.87;100.00;61487.56;4915637;28;20125;-73
2023/05/03 05:35:02;;;;;;;10.30;5.50;;;;;;;-144.87;100.00;61487.56;4932145;28;20518;-73
2023/05/03 05:37:28;;;;;;;27.98;6.15;;;;;;;-144.87;100.00;61487.56;4949647;28;20097;-73
2023/05/03 05:39:58;;;;;;;14.25;5.38;;;;;;;-144.87;100.00;61487.56;4950055;28;20062;-73
2023/05/03 05:42:28;;;;;;;11.65;5.45;;;;;;;-144.87;100.00;61487.56;4953922;28;20038;-74
2023/05/03 05:44:56;;;;;;;10.00;4.88;;;;;;;-144.87;100.00;61487.56;4943313;28;20046;-74
2023/05/03 05:47:22;;;;;;;10.27;4.40;;;;;;;-144.87;100.00;61487.56;4942277;28;20504;-74
2023/05/03 05:49:51;;;;;;;14.80;4.43;;;;;;;-144.87;100.00;61487.56;4940962;28;20035;-74
2023/05/03 05:52:17;;;;;;;11.40;4.57;;;;;;;-144.87;100.00;61487.56;4963669;28;20074;-74
2023/05/03 05:54:44;;;;;;;9.23;4.80;;;;;;;-144.87;100.00;61487.56;4920064;28;20093;-74
2023/05/03 05:57:12;;;;;;;13.18;5.53;;;;;;;-144.87;100.00;61487.56;4919285;28;20035;-75
2023/05/03 05:59:39;;;;;;;8.30;4.25;;;;;;;-144.87;100.00;61487.56;4934792;28;20027;-73
2023/05/03 06:02:12;;;;;;;17.27;5.93;;;;;;;-144.87;100.00;61487.56;4948447;28;20308;-74
2023/05/03 06:04:38;;;;;;;8.63;4.55;;;;;;;-144.87;100.00;61487.56;4964573;28;20185;-74
2023/05/03 06:07:06;;;;;;;12.82;4.78;;;;;;;-144.87;100.00;61487.56;4956539;28;20035;-73
2023/05/03 06:09:32;;;;;;;8.15;4.28;;;;;;;-144.87;100.00;61487.56;4923904;29;20412;-72
2023/05/03 06:12:02;;;;;;;9.63;4.50;;;;;;;-144.87;100.00;61487.56;4953088;29;20062;-74
2023/05/03 06:14:30;;;;;;;12.35;4.90;;;;;;;-144.87;100.00;61487.56;4962671;28;20042;-74
2023/05/03 06:16:58;;;;;;;9.32;4.03;;;;;;;-144.87;100.00;61487.56;4941051;28;20093;-74
2023/05/03 06:19:25;;;;;;;10.55;4.75;;;;;;;-144.87;100.00;61487.56;4942051;28;20031;-74
2023/05/03 06:21:52;;;;;;;7.80;4.13;;;;;;;-144.87;100.00;61487.56;4958183;28;20031;-74
2023/05/03 06:24:19;;;;;;;8.40;3.75;;;;;;;-144.87;100.00;61487.56;4928515;28;20038;-73
2023/05/03 06:26:47;;;;;;;17.77;4.80;;;;;;;-144.87;100.00;61487.56;4954974;28;20046;-72
2023/05/03 06:29:14;;;;;;;9.45;4.10;;;;;;;-144.87;100.00;61487.56;4958289;28;20031;-71
2023/05/03 06:31:41;;;;;;;12.50;4.00;;;;;;;-144.87;100.00;61487.56;4911518;28;20058;-74
2023/05/03 06:34:08;;;;;;;10.13;3.65;;;;;;;-144.87;100.00;61487.56;4931835;28;20045;-74
2023/05/03 06:36:36;;;;;;;10.02;3.63;;;;;;;-144.87;100.00;61487.56;4940470;28;20030;-76
2023/05/03 06:39:03;;;;;;;9.68;3.90;;;;;;;-144.87;100.00;61487.56;4929871;28;20504;-73
2023/05/03 06:41:31;;;;;;;7.72;3.33;;;;;;;-144.87;100.00;61487.56;4958914;28;20407;-75
2023/05/03 06:43:58;;;;;;;12.95;3.20;;;;;;;-144.87;100.00;61487.56;4924949;28;20037;-74
2023/05/03 06:46:26;;;;;;;7.20;3.25;;;;;;;-144.87;100.00;61487.56;4933305;28;20592;-74
2023/05/03 06:48:55;;;;;;;9.07;3.30;;;;;;;-144.87;100.00;61487.56;4957044;28;20147;-78
2023/05/03 06:51:26;;;;;;;9.15;3.10;;;;;;;-144.87;100.00;61487.56;4944454;28;20508;-72
2023/05/03 06:53:55;;;;;;;11.75;3.35;;;;;;;-144.87;100.00;61487.56;4976617;28;20447;-73
2023/05/03 06:56:22;;;;;;;9.93;3.05;;;;;;;-144.87;100.00;61487.56;4978098;28;20038;-73
2023/05/03 06:58:48;;;;;;;11.10;3.75;;;;;;;-144.87;100.00;61487.56;4973272;28;20038;-73
2023/05/03 07:01:16;;;;;;;7.82;3.63;;;;;;;-144.87;100.00;61487.56;4970351;28;20034;-73
2023/05/03 07:03:42;;;;;;;7.28;3.30;;;;;;;-144.87;100.00;61487.56;4937811;29;20045;-74
2023/05/03 07:06:09;;;;;;;11.02;3.17;;;;;;;-144.87;100.00;61487.56;4949901;28;20030;-75
2023/05/03 07:08:35;;;;;;;11.13;2.90;;;;;;;-144.87;100.00;61487.56;4953889;28;20049;-74
2023/05/03 07:11:01;;;;;;;6.13;2.70;;;;;;;-144.87;100.00;61487.56;4958451;28;20045;-74
2023/05/03 07:13:27;;;;;;;8.18;2.75;;;;;;;-144.87;100.00;61487.56;4953231;28;20136;-76
2023/05/03 07:15:54;;;;;;;10.48;3.40;;;;;;;-144.87;100.00;61487.56;4960424;28;20469;-74
2023/05/03 07:18:20;;;;;;;6.22;2.50;;;;;;;-144.87;100.00;61487.56;4965972;28;20130;-74
2023/05/03 07:20:47;;;;;;;8.05;3.13;;;;;;;-144.87;100.00;61487.56;4956665;28;20050;-76
2023/05/03 07:23:14;;;;;;;6.60;2.63;;;;;;;-144.87;100.00;61487.56;4953847;29;20062;-77
2023/05/03 07:25:41;;;;;;;7.88;3.08;;;;;;;-144.87;100.00;61487.56;4947936;28;20035;-74
2023/05/03 07:28:08;;;;;;;12.35;2.65;;;;;;;-144.87;100.00;61487.56;4943880;28;20312;-75
2023/05/03 07:30:34;;;;;;;7.03;2.25;;;;;;;-144.87;100.00;61487.56;4972220;28;20404;-76
2023/05/03 07:33:00;;;;;;;9.82;2.70;;;;;;;-144.87;100.00;61487.56;4978517;28;20042;-74
2023/05/03 07:35:27;;;;;;;9.23;2.58;;;;;;;-144.87;100.00;61487.56;4940298;28;20074;-73
2023/05/03 07:37:53;;;;;;;6.00;2.05;;;;;;;-144.87;100.00;61487.56;4941609;28;20046;-74
2023/05/03 07:40:19;;;;;;;5.80;2.10;;;;;;;-144.87;100.00;61487.56;4962199;28;20380;-73
2023/05/03 07:42:46;;;;;;;11.23;2.85;;;;;;;-144.87;100.00;61487.56;4945493;28;20381;-74
2023/05/03 07:45:12;;;;;;;10.00;2.58;;;;;;;-144.87;100.00;61487.56;4955040;28;20051;-73
2023/05/03 07:47:39;;;;;;;3.60;2.15;;;;;;;-144.87;100.00;61487.56;4955905;28;20105;-74
2023/05/03 07:50:06;;;;;;;6.10;2.25;;;;;;;-144.87;100.00;61487.56;4972866;28;20081;-74
2023/05/03 07:52:41;;;;;;;7.38;2.05;;;;;;;-144.87;100.00;61487.56;4939881;28;20452;-74
2023/05/03 07:55:07;;;;;;;4.70;1.80;;;;;;;-144.87;100.00;61487.56;4939905;28;20522;-74
2023/05/03 07:57:35;;;;;;;18.27;3.05;;;;;;;-144.87;100.00;61487.56;4959150;28;20042;-76
2023/05/03 08:00:03;;;;;;;8.40;2.58;;;;;;;-144.87;100.00;61487.56;4973852;28;20039;-73
2023/05/03 08:02:39;;;;;;;5.47;2.15;;;;;;;-144.87;100.00;61487.56;4956306;28;20349;-75
2023/05/03 08:05:06;;;;;;;6.25;2.10;;;;;;;-144.87;100.00;61487.56;4973060;28;20492;-73
2023/05/03 08:07:32;;;;;;;6.88;2.28;;;;;;;-144.87;100.00;61487.56;4970528;28;20058;-73
2023/05/03 08:10:00;;;;;;;5.03;2.38;;;;;;;-144.87;100.00;61487.56;4939837;28;20035;-73
2023/05/03 08:12:26;;;;;;;3.90;2.03;;;;;;;-144.87;100.00;61487.56;4941812;28;20043;-74
2023/05/03 08:14:55;;;;;;;9.15;2.42;;;;;;;-144.87;100.00;61487.56;4977451;28;20042;-73
2023/05/03 08:17:22;;;;;;;7.38;2.50;;;;;;;-144.87;100.00;61487.56;4957072;28;20027;-75
2023/05/03 08:19:49;;;;;;;8.38;2.22;;;;;;;-144.87;100.00;61487.56;4956468;28;20038;-75
2023/05/03 08:22:17;;;;;;;6.75;2.53;;;;;;;-144.87;100.00;61487.56;4970731;28;20046;-75
2023/05/03 08:24:43;;;;;;;18.65;4.07;;;;;;;-144.87;100.00;61487.56;4972917;28;20042;-74
2023/05/03 08:27:11;;;;;;;6.57;2.72;;;;;;;-144.87;100.00;61487.56;4954478;28;20083;-74
2023/05/03 08:29:37;;;;;;;10.25;2.75;;;;;;;-144.87;100.00;61487.56;4972490;28;20052;-73
2023/05/03 08:32:04;;;;;;;5.75;2.55;;;;;;;-144.87;100.00;61487.56;4941535;28;20165;-75
2023/05/03 08:34:31;;;;;;;7.35;2.30;;;;;;;-144.87;100.00;61487.56;4957897;28;20054;-73
2023/05/03 08:36:58;;;;;;;5.75;2.45;;;;;;;-144.87;100.00;61487.56;4957158;28;20045;-75
2023/05/03 08:39:25;;;;;;;8.88;2.40;;;;;;;-144.87;100.00;61487.56;4955724;28;20049;-74
2023/05/03 08:41:54;;;;;;;8.13;2.28;;;;;;;-144.87;100.00;61487.56;4955985;28;20050;-74
2023/05/03 08:44:24;;;;;;;6.85;2.10;;;;;;;-144.87;100.00;61487.56;4971812;28;20047;-74
2023/05/03 08:46:51;;;;;;;9.43;2.50;;;;;;;-144.87;100.00;61487.56;4970746;28;20126;-74
2023/05/03 08:49:17;;;;;;;5.63;2.40;;;;;;;-144.87;100.00;61487.56;4965626;28;20129;-74
2023/05/03 08:51:47;;;;;;;5.95;2.45;;;;;;;-144.87;100.00;61487.56;4951435;28;20049;-75
2023/05/03 08:54:14;;;;;;;6.75;2.20;;;;;;;-144.87;100.00;61487.56;4957908;28;20125;-74
2023/05/03 08:56:42;;;;;;;8.55;2.40;;;;;;;-144.87;100.00;61487.56;4955750;28;20034;-74
2023/05/03 08:59:10;;;;;;;5.15;2.45;;;;;;;-144.87;100.00;61487.56;4951266;28;20030;-74
2023/05/03 09:01:37;;;;;;;5.78;2.30;;;;;;;-144.87;100.00;61487.56;4951840;28;20412;-73
2023/05/03 09:04:05;;;;;;;10.60;2.90;;;;;;;-144.87;100.00;61487.56;4956565;28;20038;-74
2023/05/03 09:06:32;;;;;;;6.65;2.17;;;;;;;-144.87;100.00;61487.56;4953798;28;20037;-74
2023/05/03 09:08:59;;;;;;;5.97;2.30;;;;;;;-144.87;100.00;61487.56;4964193;28;20588;-74
2023/05/03 09:11:30;;;;;;;6.07;2.22;;;;;;;-144.87;100.00;61487.56;4970439;28;20030;-75
2023/05/03 09:14:11;;;;;;;7.63;3.60;;;;;;;-144.87;100.00;61487.56;4934784;28;20073;-75
2023/05/03 09:16:39;;;;;;;;;;;;;;;-144.87;100.00;61487.56;4972446;28;20134;-73
2023/05/03 09:19:08;;;;;;;7.32;2.20;;;;;;;-144.87;100.00;61487.56;4964292;28;19914;-74
2023/05/03 09:21:35;;;;;;;6.25;2.10;;;;;;;-144.87;100.00;61487.56;4962112;28;20090;-73
2023/05/03 09:24:04;;;;;;;11.65;2.53;;;;;;;-144.87;100.00;61487.56;4955301;28;20026;-74
2023/05/03 09:26:32;;;;;;;5.35;2.42;;;;;;;-144.87;100.00;61487.56;4938396;28;20049;-73
2023/05/03 09:29:03;;;;;;;5.00;2.40;;;;;;;-144.87;100.00;61487.56;4947029;28;20045;-74
2023/05/03 09:31:32;;;;;;;7.40;2.30;;;;;;;-144.87;100.00;61487.56;4968379;28;20038;-74
2023/05/03 09:33:59;;;;;;;11.35;2.63;;;;;;;-144.87;100.00;61487.56;4954354;28;20065;-72
2023/05/03 09:36:26;;;;;;;5.72;2.42;;;;;;;-144.87;100.00;61487.56;4953676;28;20058;-74
2023/05/03 09:38:53;;;;;;;11.02;2.95;;;;;;;-144.87;100.00;61487.56;4962409;28;20097;-73
2023/05/03 09:41:30;;;;;;;5.75;2.58;;;;;;;-144.87;100.00;61487.56;4968749;28;20041;-73
2023/05/03 09:44:01;;;;;;;7.40;2.25;;;;;;;-144.87;100.00;61487.56;4935757;28;20023;-73
2023/05/03 09:46:29;;;;;;;4.35;2.28;;;;;;;-144.87;100.00;61487.56;4957503;28;20051;-74
2023/05/03 09:48:57;;;;;;;6.72;2.35;;;;;;;-144.87;100.00;61487.56;4954869;28;20062;-73
2023/05/03 09:51:23;;;;;;;11.02;2.38;;;;;;;-144.87;100.00;61487.56;4935708;28;20124;-74
2023/05/03 09:53:50;;;;;;;11.60;2.53;;;;;;;-144.87;100.00;61487.56;4969907;28;20054;-72
2023/05/03 09:56:19;;;;;;;6.43;2.40;;;;;;;-144.87;100.00;61487.56;4937548;28;20448;-74
2023/05/03 09:58:46;;;;;;;7.28;2.25;;;;;;;-144.87;100.00;61487.56;4954551;28;20039;-75
2023/05/03 10:01:15;;;;;;;6.45;2.38;;;;;;;-144.87;100.00;61487.56;4944009;29;20389;-73
2023/05/03 10:03:53;;;;;;;7.53;2.40;;;;;;;-144.87;100.00;61487.56;4952395;29;20038;-74
2023/05/03 10:06:25;;;;;;;6.18;2.83;;;;;;;-144.87;100.00;61487.56;4947187;29;20098;-74
2023/05/03 10:09:07;;;;;;;6.53;2.50;;;;;;;-144.87;100.00;61487.56;4952433;29;20031;-75
2023/05/03 10:11:35;;;;;;;4.75;2.28;;;;;;;-144.87;100.00;61487.56;4969829;28;20034;-74
2023/05/03 10:14:03;;;;;;;9.80;2.30;;;;;;;-144.87;100.00;61487.56;4958036;28;20042;-74
2023/05/03 10:16:33;;;;;;;5.93;2.25;;;;;;;-144.87;100.00;61487.56;4941539;28;20050;-75
2023/05/03 10:19:08;;;;;;;11.60;2.60;;;;;;;-144.87;100.00;61487.56;4942674;28;20023;-76
2023/05/03 10:22:07;;;;;;;7.30;2.50;;;;;;;-144.87;100.00;61487.56;4955836;28;20035;-74
2023/05/03 10:24:35;;;;;;;6.35;2.58;;;;;;;-144.87;100.00;61487.56;4953586;28;20035;-74
2023/05/03 10:27:02;;;;;;;6.43;2.20;;;;;;;-144.87;100.00;61487.56;4970513;28;20035;-73
2023/05/03 10:29:34;;;;;;;7.20;2.35;;;;;;;-144.87;100.00;61487.56;4953208;28;20527;-75
2023/05/03 10:32:27;;;;;;;11.70;2.35;;;;;;;-144.87;100.00;61487.56;4970620;28;20051;-73
2023/05/03 10:35:00;;;;;;;9.25;2.42;;;;;;;-144.87;100.00;61487.56;4953151;28;20042;-74
2023/05/03 10:37:27;;;;;;;6.18;2.80;;;;;;;-144.87;100.00;61487.56;4953611;28;20039;-73
2023/05/03 10:39:54;;;;;;;10.90;2.63;;;;;;;-144.87;100.00;61487.56;4969290;28;20026;-73
2023/05/03 10:42:26;;;;;;;10.63;2.35;;;;;;;-144.87;100.00;61487.56;4972324;28;20030;-72
2023/05/03 10:44:54;;;;;;;8.38;2.85;;;;;;;-144.87;100.00;61487.56;4949865;28;20046;-74
2023/05/03 10:47:25;;;;;;;15.57;3.13;;;;;;;-144.87;100.00;61487.56;4942319;28;20051;-72
2023/05/03 10:50:13;;;;;;;8.95;3.30;;;;;;;-144.87;100.00;61487.56;4977715;28;20050;-74
2023/05/03 10:52:42;;;;;;;6.55;2.65;;;;;;;-144.87;100.00;61487.56;4957309;28;20043;-73
2023/05/03 10:55:09;;;;;;;7.78;2.75;;;;;;;-144.87;100.00;61487.56;4977389;28;20138;-73
2023/05/03 10:57:37;;;;;;;6.65;2.67;;;;;;;-144.87;100.00;61487.56;4945587;28;20563;-73
2023/05/03 11:00:07;;;;;;;5.93;2.75;;;;;;;-144.87;100.00;61487.56;4932798;29;20039;-73
2023/05/03 11:02:36;;;;;;;8.15;2.53;;;;;;;-144.87;100.00;61487.56;4955878;28;20027;-72
2023/05/03 11:05:06;;;;;;;9.98;3.13;;;;;;;-144.87;100.00;61487.56;4938422;28;20049;-72
2023/05/03 11:07:33;;;;;;;8.07;2.88;;;;;;;-144.87;100.00;61487.56;4956345;28;20045;-74
2023/05/03 11:09:59;;;;;;;6.97;3.20;;;;;;;-144.87;100.00;61487.56;4954653;28;20042;-74
2023/05/03 11:12:26;;;;;;;11.30;3.22;;;;;;;-144.87;100.00;61487.56;4972237;28;20361;-74